createdAt,value
2018-01-13T00:00:00.946Z,4.50
2018-01-13T00:02:28.426Z,4.30
2018-01-13T00:04:55.893Z,4.50
2018-01-13T00:07:23.371Z,4.40
2018-01-13T00:09:51.606Z,4.20
2018-01-13T00:12:19.087Z,4.30
2018-01-13T00:14:46.553Z,4.20
2018-01-13T00:17:14.800Z,4.40
2018-01-13T00:19:42.266Z,4.40
2018-01-13T00:22:09.746Z,4.10
2018-01-13T00:24:37.982Z,4.60
2018-01-13T00:27:05.468Z,4.50
2018-01-13T00:29:32.939Z,4.40
2018-01-13T00:32:00.405Z,4.30
2018-01-13T00:34:28.643Z,4.70
2018-01-13T00:36:56.105Z,4.60
2018-01-13T00:39:23.586Z,4.30
2018-01-13T00:41:51.058Z,4.50
2018-01-13T00:44:19.298Z,4.70
2018-01-13T00:46:46.771Z,4.80
2018-01-13T00:49:26.909Z,4.40
2018-01-13T00:51:54.375Z,4.40
2018-01-13T00:54:21.845Z,4.60
2018-01-13T00:56:49.309Z,4.60
2018-01-13T00:59:17.549Z,4.30
2018-01-13T01:01:45.018Z,4.30
2018-01-13T01:04:12.486Z,4.50
2018-01-13T01:06:39.946Z,4.10
2018-01-13T01:09:07.419Z,4.20
2018-01-13T01:11:35.656Z,4.20
2018-01-13T01:14:03.128Z,4.30
2018-01-13T01:16:30.588Z,4.40
2018-01-13T01:18:58.062Z,4.10
2018-01-13T01:21:25.526Z,4.50
2018-01-13T01:23:53.773Z,4.20
2018-01-13T01:26:21.245Z,4.30
2018-01-13T01:28:48.734Z,4.20
2018-01-13T01:31:17.181Z,4.00
2018-01-13T01:33:44.654Z,4.30
2018-01-13T01:36:12.126Z,4.10
2018-01-13T01:38:40.371Z,4.30
2018-01-13T01:41:07.844Z,4.10
2018-01-13T01:43:35.323Z,4.20
2018-01-13T01:46:03.553Z,4.60
2018-01-13T01:48:31.037Z,4.40
2018-01-13T01:50:58.505Z,4.40
2018-01-13T01:53:26.750Z,4.40
2018-01-13T01:55:54.218Z,4.50
2018-01-13T01:58:21.691Z,4.50
2018-01-13T02:00:49.930Z,4.60
2018-01-13T02:03:17.401Z,4.30
2018-01-13T02:05:44.873Z,4.70
2018-01-13T02:08:12.354Z,4.40
2018-01-13T02:10:40.593Z,4.30
2018-01-13T02:13:08.069Z,4.30
2018-01-13T02:15:35.534Z,4.50
2018-01-13T02:18:03.005Z,4.40
2018-01-13T02:20:31.248Z,4.30
2018-01-13T02:22:58.714Z,4.50
2018-01-13T02:25:26.231Z,4.30
2018-01-13T02:27:53.650Z,4.60
2018-01-13T02:30:21.873Z,4.40
2018-01-13T02:32:49.362Z,4.40
2018-01-13T02:35:16.842Z,4.00
2018-01-13T02:37:45.086Z,4.10
2018-01-13T02:40:12.550Z,4.10
2018-01-13T02:42:40.029Z,4.00
2018-01-13T02:45:07.486Z,4.10
2018-01-13T02:47:35.719Z,4.10
2018-01-13T02:50:03.203Z,4.10
2018-01-13T02:52:30.669Z,4.10
2018-01-13T02:54:58.164Z,4.10
2018-01-13T02:57:26.383Z,4.40
2018-01-13T02:59:53.860Z,4.00
2018-01-13T03:02:21.337Z,4.20
2018-01-13T03:04:49.575Z,4.20
2018-01-13T03:07:17.037Z,4.30
2018-01-13T03:09:44.513Z,4.60
2018-01-13T03:12:11.994Z,4.20
2018-01-13T03:14:40.245Z,4.00
2018-01-13T03:17:07.722Z,3.90
2018-01-13T03:19:35.974Z,4.30
2018-01-13T03:22:03.441Z,4.10
2018-01-13T03:24:30.920Z,4.00
2018-01-13T03:26:59.157Z,4.60
2018-01-13T03:29:26.643Z,4.30
2018-01-13T03:31:54.114Z,4.30
2018-01-13T03:34:21.586Z,4.30
2018-01-13T03:36:49.060Z,4.30
2018-01-13T03:39:16.546Z,4.30
2018-01-13T03:41:44.027Z,4.20
2018-01-13T03:44:11.503Z,4.00
2018-01-13T03:46:39.739Z,4.00
2018-01-13T03:49:07.214Z,4.20
2018-01-13T03:51:34.682Z,4.00
2018-01-13T03:54:02.158Z,4.00
2018-01-13T03:56:30.407Z,4.00
2018-01-13T03:58:57.882Z,4.10
2018-01-13T04:01:26.118Z,3.80
2018-01-13T04:03:53.595Z,4.00
2018-01-13T04:06:21.066Z,4.00
2018-01-13T04:08:48.555Z,4.00
2018-01-13T04:11:16.019Z,4.10
2018-01-13T04:13:43.504Z,4.00
2018-01-13T04:16:10.978Z,4.30
2018-01-13T04:18:38.454Z,4.20
2018-01-13T04:21:05.928Z,4.20
2018-01-13T04:23:34.183Z,3.80
2018-01-13T04:26:01.656Z,4.00
2018-01-13T04:28:29.898Z,4.30
2018-01-13T04:30:57.363Z,4.20
2018-01-13T04:33:24.854Z,4.30
2018-01-13T04:35:53.095Z,4.20
2018-01-13T04:38:20.570Z,4.20
2018-01-13T04:40:48.049Z,4.20
2018-01-13T04:46:09.436Z,4.20
2018-01-13T04:48:36.902Z,4.00
2018-01-13T04:51:04.370Z,4.00
2018-01-13T04:53:31.866Z,4.30
2018-01-13T04:56:00.097Z,4.10
2018-01-13T04:58:27.579Z,4.00
2018-01-13T05:00:55.051Z,3.90
2018-01-13T05:03:23.318Z,4.10
2018-01-13T05:05:51.545Z,3.80
2018-01-13T05:08:19.030Z,4.00
2018-01-13T05:10:46.509Z,4.30
2018-01-13T05:13:13.974Z,4.10
2018-01-13T05:15:42.223Z,4.20
2018-01-13T05:18:09.691Z,4.20
2018-01-13T05:20:37.171Z,3.90
2018-01-13T05:23:05.406Z,4.20
2018-01-13T05:25:32.890Z,4.00
2018-01-13T05:28:00.367Z,4.00
2018-01-13T05:30:28.618Z,4.00
2018-01-13T05:32:56.083Z,3.70
2018-01-13T05:35:23.579Z,3.90
2018-01-13T05:37:51.061Z,4.30
2018-01-13T05:40:18.548Z,3.90
2018-01-13T05:42:46.023Z,4.20
2018-01-13T05:45:13.507Z,4.20
2018-01-13T05:47:40.966Z,4.00
2018-01-13T05:50:08.450Z,4.10
2018-01-13T05:52:35.925Z,4.20
2018-01-13T05:55:03.403Z,4.20
2018-01-13T05:57:30.866Z,4.00
2018-01-13T05:59:58.350Z,4.00
2018-01-13T06:02:26.582Z,4.00
2018-01-13T06:04:54.059Z,4.30
2018-01-13T06:07:21.553Z,4.20
2018-01-13T06:09:49.037Z,4.00
2018-01-13T06:12:16.508Z,4.30
2018-01-13T06:14:43.991Z,4.30
2018-01-13T06:17:11.462Z,3.90
2018-01-13T06:19:39.707Z,3.90
2018-01-13T06:22:07.174Z,3.90
2018-01-13T06:24:34.676Z,3.80
2018-01-13T06:27:02.902Z,4.00
2018-01-13T06:29:30.390Z,4.10
2018-01-13T06:31:58.634Z,3.90
2018-01-13T06:34:26.375Z,3.80
2018-01-13T06:36:53.851Z,3.90
2018-01-13T06:39:21.331Z,4.10
2018-01-13T06:41:48.803Z,4.10
2018-01-13T06:44:17.051Z,3.80
2018-01-13T06:46:44.526Z,3.70
2018-01-13T06:49:12.015Z,3.80
2018-01-13T06:51:39.491Z,3.90
2018-01-13T06:54:06.975Z,3.80
2018-01-13T06:56:34.454Z,3.80
2018-01-13T06:59:01.937Z,4.00
2018-01-13T07:01:30.168Z,4.10
2018-01-13T07:03:57.647Z,3.80
2018-01-13T07:06:25.123Z,4.10
2018-01-13T07:08:53.395Z,3.70
2018-01-13T07:11:21.626Z,3.90
2018-01-13T07:13:49.094Z,3.70
2018-01-13T07:16:16.579Z,3.90
2018-01-13T07:18:44.047Z,3.70
2018-01-13T07:21:12.297Z,3.60
2018-01-13T07:23:39.767Z,4.00
2018-01-13T07:26:07.251Z,3.60
2018-01-13T07:28:35.490Z,3.60
2018-01-13T07:31:02.981Z,3.90
2018-01-13T07:33:31.220Z,3.80
2018-01-13T07:35:58.694Z,3.90
2018-01-13T07:38:26.182Z,3.80
2018-01-13T07:40:54.430Z,3.60
2018-01-13T07:43:21.927Z,3.70
2018-01-13T07:45:49.418Z,3.70
2018-01-13T07:48:16.884Z,3.90
2018-01-13T07:50:44.357Z,3.70
2018-01-13T07:53:11.826Z,3.60
2018-01-13T07:55:39.315Z,3.60
2018-01-13T07:58:06.782Z,3.70
2018-01-13T08:00:34.262Z,4.00
2018-01-13T08:03:01.726Z,3.60
2018-01-13T08:05:29.196Z,3.80
2018-01-13T08:07:56.680Z,3.50
2018-01-13T08:10:24.164Z,3.60
2018-01-13T08:12:51.642Z,3.40
2018-01-13T08:15:19.123Z,3.60
2018-01-13T08:17:46.590Z,3.50
2018-01-13T08:20:14.070Z,3.60
2018-01-13T08:22:41.550Z,3.60
2018-01-13T08:25:09.813Z,3.40
2018-01-13T08:27:37.269Z,3.40
2018-01-13T08:30:05.515Z,3.50
2018-01-13T08:32:32.993Z,3.80
2018-01-13T08:35:00.471Z,3.50
2018-01-13T08:37:28.719Z,3.50
2018-01-13T08:39:56.204Z,3.60
2018-01-13T08:42:24.457Z,3.50
2018-01-13T08:44:51.930Z,3.70
2018-01-13T08:47:20.183Z,3.50
2018-01-13T08:49:47.963Z,3.50
2018-01-13T08:52:15.653Z,3.70
2018-01-13T08:54:43.891Z,3.40
2018-01-13T08:57:11.630Z,3.60
2018-01-13T08:59:39.214Z,3.60
2018-01-13T09:02:08.462Z,3.40
2018-01-13T09:04:35.945Z,3.50
2018-01-13T09:07:03.414Z,3.40
2018-01-13T09:09:30.924Z,3.20
2018-01-13T09:11:58.411Z,3.20
2018-01-13T09:14:25.889Z,3.30
2018-01-13T09:16:53.372Z,3.10
2018-01-13T09:19:20.855Z,3.40
2018-01-13T09:21:49.901Z,3.50
2018-01-13T09:24:17.382Z,3.20
2018-01-13T09:26:44.865Z,3.50
2018-01-13T09:29:13.099Z,3.30
2018-01-13T09:31:40.574Z,3.40
2018-01-13T09:34:08.103Z,3.30
2018-01-13T09:36:36.306Z,3.20
2018-01-13T09:39:03.778Z,3.20
2018-01-13T09:41:31.250Z,3.40
2018-01-13T09:43:59.486Z,3.40
2018-01-13T09:46:26.976Z,3.40
2018-01-13T09:48:54.438Z,3.50
2018-01-13T09:51:22.693Z,3.30
2018-01-13T09:53:50.184Z,3.30
2018-01-13T09:56:18.431Z,3.50
2018-01-13T09:58:45.909Z,3.50
2018-01-13T10:01:14.151Z,3.10
2018-01-13T10:03:41.650Z,3.10
2018-01-13T10:06:09.124Z,3.70
2018-01-13T10:08:36.595Z,3.40
2018-01-13T10:11:04.095Z,3.20
2018-01-13T10:13:31.567Z,3.30
2018-01-13T10:15:59.054Z,3.30
2018-01-13T10:18:26.526Z,3.40
2018-01-13T10:20:54.027Z,3.40
2018-01-13T10:23:21.499Z,3.60
2018-01-13T10:25:48.971Z,3.70
2018-01-13T10:28:17.211Z,3.60
2018-01-13T10:30:45.467Z,3.40
2018-01-13T10:33:12.947Z,3.80
2018-01-13T10:35:41.237Z,3.40
2018-01-13T10:38:08.704Z,3.30
2018-01-13T10:40:36.955Z,3.20
2018-01-13T10:43:04.430Z,3.20
2018-01-13T10:45:31.916Z,3.20
2018-01-13T10:47:59.403Z,3.60
2018-01-13T10:50:26.888Z,3.30
2018-01-13T10:52:54.358Z,3.20
2018-01-13T10:55:21.848Z,3.40
2018-01-13T10:57:50.083Z,3.30
2018-01-13T11:00:17.568Z,3.30
2018-01-13T11:02:45.807Z,3.50
2018-01-13T11:05:13.286Z,3.60
2018-01-13T11:07:40.767Z,3.50
2018-01-13T11:10:09.007Z,3.40
2018-01-13T11:12:36.480Z,3.50
2018-01-13T11:15:03.959Z,3.20
2018-01-13T11:17:32.202Z,3.40
2018-01-13T11:19:59.682Z,3.60
2018-01-13T11:22:27.177Z,3.30
2018-01-13T11:24:54.653Z,3.40
2018-01-13T11:27:22.149Z,3.40
2018-01-13T11:29:49.629Z,3.50
2018-01-13T11:32:17.886Z,3.60
2018-01-13T11:34:45.649Z,3.60
2018-01-13T11:37:13.139Z,3.70
2018-01-13T11:39:40.620Z,3.90
2018-01-13T11:42:08.122Z,3.60
2018-01-13T11:44:35.603Z,3.50
2018-01-13T11:47:03.859Z,3.90
2018-01-13T11:49:31.362Z,3.50
2018-01-13T11:51:58.837Z,3.70
2018-01-13T11:54:26.309Z,3.60
2018-01-13T11:56:53.787Z,3.60
2018-01-13T11:59:21.275Z,3.50
2018-01-13T12:01:49.523Z,3.50
2018-01-13T12:04:17.019Z,3.60
2018-01-13T12:06:44.512Z,3.80
2018-01-13T12:09:11.986Z,3.50
2018-01-13T12:11:39.461Z,3.80
2018-01-13T12:14:06.932Z,3.60
2018-01-13T12:16:34.520Z,3.60
2018-01-13T12:19:01.991Z,3.60
2018-01-13T12:21:29.498Z,3.40
2018-01-13T12:23:56.967Z,3.70
2018-01-13T12:26:24.460Z,3.50
2018-01-13T12:28:51.931Z,3.50
2018-01-13T12:31:19.418Z,3.50
2018-01-13T12:33:46.914Z,3.60
2018-01-13T12:36:15.164Z,3.60
2018-01-13T12:38:42.646Z,3.20
2018-01-13T12:41:10.894Z,3.40
2018-01-13T12:43:38.379Z,3.40
2018-01-13T12:46:06.633Z,3.40
2018-01-13T12:48:34.106Z,3.30
2018-01-13T12:51:02.369Z,3.00
2018-01-13T12:53:29.871Z,3.10
2018-01-13T12:55:57.355Z,3.00
2018-01-13T12:58:24.834Z,3.10
2018-01-13T13:00:52.401Z,3.00
2018-01-13T13:03:19.878Z,3.10
2018-01-13T13:05:47.355Z,3.40
2018-01-13T13:08:14.835Z,3.10
2018-01-13T13:10:42.355Z,3.00
2018-01-13T13:13:10.600Z,3.10
2018-01-13T13:15:38.074Z,3.00
2018-01-13T13:18:05.556Z,3.30
2018-01-13T13:20:33.871Z,3.10
2018-01-13T13:23:01.386Z,3.00
2018-01-13T13:25:29.660Z,2.70
2018-01-13T13:27:57.172Z,2.90
2018-01-13T13:30:24.660Z,2.90
2018-01-13T13:32:52.143Z,2.80
2018-01-13T13:35:20.374Z,3.10
2018-01-13T13:37:47.863Z,3.20
2018-01-13T13:40:15.340Z,3.10
2018-01-13T13:42:43.587Z,2.90
2018-01-13T13:45:11.064Z,2.90
2018-01-13T13:47:39.315Z,2.90
2018-01-13T13:50:06.792Z,2.80
2018-01-13T13:52:34.273Z,3.30
2018-01-13T13:55:02.504Z,3.00
2018-01-13T13:57:29.991Z,3.10
2018-01-13T13:59:58.234Z,3.00
2018-01-13T14:02:25.716Z,3.10
2018-01-13T14:04:53.190Z,3.00
2018-01-13T14:07:21.450Z,3.00
2018-01-13T14:09:48.922Z,3.10
2018-01-13T14:12:17.158Z,3.00
2018-01-13T14:14:44.627Z,2.90
2018-01-13T14:17:12.698Z,3.00
2018-01-13T14:19:40.158Z,2.90
2018-01-13T14:22:07.649Z,2.80
2018-01-13T14:24:35.882Z,3.00
2018-01-13T14:27:03.375Z,2.90
2018-01-13T14:29:30.842Z,3.10
2018-01-13T14:31:59.091Z,2.80
2018-01-13T14:34:26.550Z,3.00
2018-01-13T14:36:54.026Z,3.00
2018-01-13T14:39:22.279Z,3.00
2018-01-13T14:41:49.766Z,2.70
2018-01-13T14:44:18.002Z,2.90
2018-01-13T14:46:45.490Z,2.90
2018-01-13T14:49:13.722Z,2.60
2018-01-13T14:51:41.198Z,2.70
2018-01-13T14:54:08.676Z,2.80
2018-01-13T14:56:36.163Z,2.80
2018-01-13T14:59:03.642Z,2.70
2018-01-13T15:01:31.126Z,2.70
2018-01-13T15:03:59.494Z,2.60
2018-01-13T15:06:26.984Z,2.80
2018-01-13T15:08:54.470Z,2.60
2018-01-13T15:11:22.728Z,2.80
2018-01-13T15:13:50.200Z,2.60
2018-01-13T15:16:18.431Z,2.90
2018-01-13T15:18:46.692Z,2.90
2018-01-13T15:21:14.175Z,2.60
2018-01-13T15:23:41.872Z,2.90
2018-01-13T15:26:10.108Z,2.80
2018-01-13T15:28:37.590Z,2.70
2018-01-13T15:31:05.068Z,2.70
2018-01-13T15:33:33.368Z,2.40
2018-01-13T15:36:00.839Z,2.40
2018-01-13T15:38:28.317Z,2.30
2018-01-13T15:40:55.783Z,2.40
2018-01-13T15:43:23.296Z,2.60
2018-01-13T15:45:50.779Z,2.50
2018-01-13T15:48:19.042Z,2.60
2018-01-13T15:50:46.526Z,2.40
2018-01-13T15:53:14.176Z,2.60
2018-01-13T15:55:41.810Z,2.40
2018-01-13T15:58:09.347Z,2.50
2018-01-13T16:00:37.582Z,2.50
2018-01-13T16:03:05.070Z,2.60
2018-01-13T16:05:32.544Z,2.50
2018-01-13T16:08:00.782Z,2.20
2018-01-13T16:10:28.250Z,2.30
2018-01-13T16:12:55.738Z,2.30
2018-01-13T16:15:23.968Z,2.30
2018-01-13T16:17:51.447Z,2.30
2018-01-13T16:20:18.922Z,2.40
2018-01-13T16:22:47.177Z,2.10
2018-01-13T16:25:14.655Z,2.40
2018-01-13T16:27:42.902Z,2.10
2018-01-13T16:30:10.387Z,2.30
2018-01-13T16:32:37.870Z,2.20
2018-01-13T16:35:05.338Z,2.30
2018-01-13T16:37:32.816Z,2.40
2018-01-13T16:40:00.290Z,2.40
2018-01-13T16:45:22.433Z,2.30
2018-01-13T16:47:49.922Z,2.40
2018-01-13T16:50:17.458Z,2.30
2018-01-13T16:52:44.939Z,2.20
2018-01-13T16:55:12.414Z,2.20
2018-01-13T16:57:40.655Z,2.00
2018-01-13T17:00:08.133Z,1.80
2018-01-13T17:02:35.614Z,2.30
2018-01-13T17:05:03.905Z,2.20
2018-01-13T17:07:31.383Z,2.20
2018-01-13T17:09:58.837Z,2.20
2018-01-13T17:12:26.331Z,2.30
2018-01-13T17:14:53.800Z,2.40
2018-01-13T17:17:21.285Z,2.50
2018-01-13T17:19:49.509Z,2.10
2018-01-13T17:22:16.988Z,2.20
2018-01-13T17:24:44.453Z,2.20
2018-01-13T17:27:11.943Z,2.20
2018-01-13T17:29:39.415Z,2.10
2018-01-13T17:32:06.899Z,2.30
2018-01-13T17:34:34.367Z,2.00
2018-01-13T17:37:01.840Z,2.20
2018-01-13T17:39:30.760Z,2.10
2018-01-13T17:41:58.274Z,2.10
2018-01-13T17:44:25.772Z,1.80
2018-01-13T17:46:54.015Z,2.20
2018-01-13T17:49:21.489Z,2.00
2018-01-13T17:51:48.962Z,2.00
2018-01-13T17:54:17.214Z,2.00
2018-01-13T17:56:44.705Z,2.00
2018-01-13T17:59:12.952Z,2.00
2018-01-13T18:01:40.433Z,1.70
2018-01-13T18:04:08.686Z,1.70
2018-01-13T18:06:36.567Z,1.80
2018-01-13T18:09:04.828Z,2.00
2018-01-13T18:11:32.307Z,1.50
2018-01-13T18:14:00.563Z,1.60
2018-01-13T18:16:28.027Z,1.90
2018-01-13T18:18:55.648Z,1.80
2018-01-13T18:21:23.125Z,1.90
2018-01-13T18:23:50.602Z,2.10
2018-01-13T18:26:18.591Z,2.10
2018-01-13T18:28:46.057Z,1.80
2018-01-13T18:31:14.290Z,2.00
2018-01-13T18:33:41.782Z,1.70
2018-01-13T18:36:10.026Z,2.10
2018-01-13T18:38:37.503Z,1.80
2018-01-13T18:41:04.983Z,2.00
2018-01-13T18:43:33.230Z,1.70
2018-01-13T18:46:00.714Z,1.80
2018-01-13T18:48:28.966Z,1.70
2018-01-13T18:50:56.435Z,1.90
2018-01-13T18:53:23.919Z,1.80
2018-01-13T18:55:51.421Z,1.60
2018-01-13T18:58:18.895Z,1.60
2018-01-13T19:00:46.367Z,1.70
2018-01-13T19:03:13.863Z,1.90
2018-01-13T19:05:41.329Z,1.80
2018-01-13T19:08:08.812Z,1.60
2018-01-13T19:10:36.286Z,2.00
2018-01-13T19:13:03.764Z,1.60
2018-01-13T19:15:32.015Z,1.90
2018-01-13T19:17:59.496Z,1.90
2018-01-13T19:20:26.962Z,1.80
2018-01-13T19:22:55.210Z,2.20
2018-01-13T19:25:22.682Z,2.10
2018-01-13T19:27:50.206Z,2.20
2018-01-13T19:30:17.679Z,2.00
2018-01-13T19:32:45.160Z,2.00
2018-01-13T19:35:12.629Z,2.10
2018-01-13T19:37:40.882Z,1.70
2018-01-13T19:40:08.351Z,2.00
2018-01-13T19:42:36.290Z,2.10
2018-01-13T19:45:03.776Z,1.70
2018-01-13T19:47:31.245Z,1.40
2018-01-13T19:49:59.499Z,1.80
2018-01-13T19:52:26.985Z,1.60
2018-01-13T19:54:55.239Z,1.60
2018-01-13T19:57:23.200Z,1.90
2018-01-13T19:59:50.682Z,1.60
2018-01-13T20:02:18.175Z,1.80
2018-01-13T20:04:45.656Z,1.70
2018-01-13T20:07:13.133Z,1.70
2018-01-13T20:09:40.634Z,1.70
2018-01-13T20:12:08.863Z,1.80
2018-01-13T20:14:36.350Z,1.70
2018-01-13T20:17:03.831Z,1.70
2018-01-13T20:19:31.324Z,1.90
2018-01-13T20:21:58.797Z,1.70
2018-01-13T20:24:26.270Z,1.70
2018-01-13T20:26:53.746Z,1.60
2018-01-13T20:29:22.046Z,1.90
2018-01-13T20:31:49.466Z,2.00
2018-01-13T20:34:16.961Z,1.70
2018-01-13T20:36:44.429Z,2.00
2018-01-13T20:39:11.906Z,1.70
2018-01-13T20:41:39.394Z,1.70
2018-01-13T20:44:06.861Z,1.80
2018-01-13T20:46:34.326Z,1.70
2018-01-13T20:49:02.575Z,1.90
2018-01-13T20:51:30.048Z,1.70
2018-01-13T20:53:57.526Z,1.70
2018-01-13T20:56:25.770Z,1.70
2018-01-13T20:58:53.254Z,2.00
2018-01-13T21:01:21.493Z,1.70
2018-01-13T21:03:48.976Z,2.00
2018-01-13T21:06:16.438Z,1.70
2018-01-13T21:08:44.686Z,1.90
2018-01-13T21:11:12.149Z,1.40
2018-01-13T21:13:39.656Z,1.40
2018-01-13T21:16:07.135Z,1.60
2018-01-13T21:18:34.638Z,1.50
2018-01-13T21:21:02.138Z,1.60
2018-01-13T21:23:29.612Z,1.80
2018-01-13T21:25:57.088Z,1.80
2018-01-13T21:28:24.594Z,1.50
2018-01-13T21:30:52.828Z,1.90
2018-01-13T21:33:20.304Z,1.50
2018-01-13T21:35:47.792Z,1.80
2018-01-13T21:38:16.022Z,1.70
2018-01-13T21:40:43.511Z,2.00
2018-01-13T21:43:10.979Z,1.70
2018-01-13T21:45:39.257Z,1.80
2018-01-13T21:48:07.498Z,2.00
2018-01-13T21:50:35.004Z,1.80
2018-01-13T21:53:02.470Z,1.70
2018-01-13T21:55:29.961Z,1.70
2018-01-13T21:57:57.439Z,1.80
2018-01-13T22:00:24.913Z,2.10
2018-01-13T22:02:53.146Z,2.00
2018-01-13T22:05:20.626Z,2.00
2018-01-13T22:07:48.106Z,2.10
2018-01-13T22:10:16.354Z,1.90
2018-01-13T22:12:43.823Z,2.00
2018-01-13T22:15:11.290Z,2.00
2018-01-13T22:17:38.771Z,2.00
2018-01-13T22:20:07.018Z,1.70
2018-01-13T22:22:34.494Z,1.70
2018-01-13T22:25:02.758Z,1.70
2018-01-13T22:27:30.234Z,2.00
2018-01-13T22:29:58.481Z,1.90
2018-01-13T22:32:25.951Z,2.00
2018-01-13T22:34:53.459Z,2.10
2018-01-13T22:37:20.923Z,1.80
2018-01-13T22:39:48.454Z,1.90
2018-01-13T22:42:15.931Z,2.10
2018-01-13T22:44:43.416Z,1.90
2018-01-13T22:47:10.887Z,1.60
2018-01-13T22:49:38.387Z,1.70
2018-01-13T22:52:06.647Z,1.90
2018-01-13T22:54:34.899Z,2.00
2018-01-13T22:57:02.370Z,2.00
2018-01-13T22:59:29.860Z,1.90
2018-01-13T23:01:58.106Z,1.80
2018-01-13T23:04:25.591Z,2.10
2018-01-13T23:06:53.822Z,1.70
2018-01-13T23:09:21.298Z,1.70
2018-01-13T23:11:48.764Z,1.80
2018-01-13T23:14:17.012Z,1.90
2018-01-13T23:16:44.487Z,1.50
2018-01-13T23:19:11.966Z,1.70
2018-01-13T23:21:40.198Z,2.10
2018-01-13T23:24:07.674Z,1.80
2018-01-13T23:26:35.149Z,1.70
2018-01-13T23:29:03.400Z,1.70
2018-01-13T23:31:30.874Z,1.90
2018-01-13T23:33:58.346Z,1.60
2018-01-13T23:36:26.599Z,2.00
2018-01-13T23:38:54.064Z,1.50
2018-01-13T23:41:21.542Z,1.60
2018-01-13T23:43:49.786Z,1.50
2018-01-13T23:46:17.259Z,1.90
2018-01-13T23:48:44.727Z,1.90
2018-01-13T23:51:12.202Z,1.50
2018-01-13T23:53:39.674Z,1.80
2018-01-13T23:56:07.163Z,1.60
2018-01-13T23:58:35.398Z,1.60
